sensor_id;sensor_type;location;lat;lon;timestamp;pressure;altitude;pressure_sealevel;temperature
34125;BMP280;20110;53.120;5.786;2023-02-13T00:00:06;103897.31;;;13.49
34125;BMP280;20110;53.120;5.786;2023-02-13T00:02:32;103879.97;;;13.45
34125;BMP280;20110;53.120;5.786;2023-02-13T00:04:58;103857.28;;;13.40
34125;BMP280;20110;53.120;5.786;2023-02-13T00:07:24;103864.75;;;13.60
34125;BMP280;20110;53.120;5.786;2023-02-13T00:09:50;103837.28;;;13.36
34125;BMP280;20110;53.120;5.786;2023-02-13T00:12:16;103867.94;;;13.49
34125;BMP280;20110;53.120;5.786;2023-02-13T00:14:41;103878.25;;;13.57
34125;BMP280;20110;53.120;5.786;2023-02-13T00:17:07;103851.34;;;13.45
34125;BMP280;20110;53.120;5.786;2023-02-13T00:19:33;103854.84;;;13.51
34125;BMP280;20110;53.120;5.786;2023-02-13T00:21:59;103868.25;;;13.66
34125;BMP280;20110;53.120;5.786;2023-02-13T00:24:25;103831.28;;;13.50
34125;BMP280;20110;53.120;5.786;2023-02-13T00:26:51;103862.47;;;13.68
34125;BMP280;20110;53.120;5.786;2023-02-13T00:29:17;103863.19;;;13.68
34125;BMP280;20110;53.120;5.786;2023-02-13T00:31:42;103785.44;;;12.95
34125;BMP280;20110;53.120;5.786;2023-02-13T00:34:09;103814.66;;;12.89
34125;BMP280;20110;53.120;5.786;2023-02-13T00:36:34;103843.56;;;13.00
34125;BMP280;20110;53.120;5.786;2023-02-13T00:39:00;103770.66;;;12.52
34125;BMP280;20110;53.120;5.786;2023-02-13T00:41:26;103867.59;;;13.24
34125;BMP280;20110;53.120;5.786;2023-02-13T00:43:52;103833.88;;;13.02
34125;BMP280;20110;53.120;5.786;2023-02-13T00:46:18;103754.50;;;12.55
34125;BMP280;20110;53.120;5.786;2023-02-13T00:48:44;103842.59;;;13.12
34125;BMP280;20110;53.120;5.786;2023-02-13T00:51:11;103875.13;;;13.34
34125;BMP280;20110;53.120;5.786;2023-02-13T00:53:38;103765.91;;;12.56
34125;BMP280;20110;53.120;5.786;2023-02-13T00:56:06;103875.59;;;13.24
34125;BMP280;20110;53.120;5.786;2023-02-13T00:58:32;103815.75;;;12.73
34125;BMP280;20110;53.120;5.786;2023-02-13T01:00:58;103877.22;;;12.97
34125;BMP280;20110;53.120;5.786;2023-02-13T01:03:26;103852.22;;;12.67
34125;BMP280;20110;53.120;5.786;2023-02-13T01:05:52;103814.38;;;12.36
34125;BMP280;20110;53.120;5.786;2023-02-13T01:08:19;103819.56;;;12.39
34125;BMP280;20110;53.120;5.786;2023-02-13T01:10:47;103880.34;;;12.87
34125;BMP280;20110;53.120;5.786;2023-02-13T01:13:16;103857.09;;;12.78
34125;BMP280;20110;53.120;5.786;2023-02-13T01:15:43;103878.69;;;12.98
34125;BMP280;20110;53.120;5.786;2023-02-13T01:18:13;103762.88;;;12.21
34125;BMP280;20110;53.120;5.786;2023-02-13T01:20:41;103884.88;;;13.04
34125;BMP280;20110;53.120;5.786;2023-02-13T01:23:09;103836.69;;;12.66
34125;BMP280;20110;53.120;5.786;2023-02-13T01:25:41;103868.34;;;12.82
34125;BMP280;20110;53.120;5.786;2023-02-13T01:28:08;103780.00;;;12.38
34125;BMP280;20110;53.120;5.786;2023-02-13T01:30:34;103877.28;;;13.12
34125;BMP280;20110;53.120;5.786;2023-02-13T01:32:59;103817.56;;;12.76
34125;BMP280;20110;53.120;5.786;2023-02-13T01:35:25;103878.44;;;13.20
34125;BMP280;20110;53.120;5.786;2023-02-13T01:37:51;103879.63;;;13.28
34125;BMP280;20110;53.120;5.786;2023-02-13T01:40:17;103843.97;;;13.07
34125;BMP280;20110;53.120;5.786;2023-02-13T01:42:43;103783.50;;;12.71
34125;BMP280;20110;53.120;5.786;2023-02-13T01:45:25;103869.22;;;13.30
34125;BMP280;20110;53.120;5.786;2023-02-13T01:48:01;103836.25;;;13.09
34125;BMP280;20110;53.120;5.786;2023-02-13T01:50:35;103830.78;;;12.95
34125;BMP280;20110;53.120;5.786;2023-02-13T01:53:18;103838.78;;;13.04
34125;BMP280;20110;53.120;5.786;2023-02-13T01:56:11;103875.03;;;13.29
34125;BMP280;20110;53.120;5.786;2023-02-13T01:58:43;103837.31;;;13.27
34125;BMP280;20110;53.120;5.786;2023-02-13T02:01:11;103828.94;;;13.43
34125;BMP280;20110;53.120;5.786;2023-02-13T02:06:27;103848.56;;;13.40
34125;BMP280;20110;53.120;5.786;2023-02-13T02:09:00;103703.16;;;12.45
34125;BMP280;20110;53.120;5.786;2023-02-13T02:11:43;103833.31;;;13.31
34125;BMP280;20110;53.120;5.786;2023-02-13T02:14:11;103755.47;;;12.76
34125;BMP280;20110;53.120;5.786;2023-02-13T02:16:36;103818.84;;;13.14
34125;BMP280;20110;53.120;5.786;2023-02-13T02:19:13;103866.38;;;13.34
34125;BMP280;20110;53.120;5.786;2023-02-13T02:25:17;103855.00;;;13.48
34125;BMP280;20110;53.120;5.786;2023-02-13T02:44:01;103824.28;;;13.52
34125;BMP280;20110;53.120;5.786;2023-02-13T02:48:59;103838.81;;;13.51
34125;BMP280;20110;53.120;5.786;2023-02-13T02:52:24;103815.91;;;13.36
34125;BMP280;20110;53.120;5.786;2023-02-13T02:55:02;103795.28;;;13.12
34125;BMP280;20110;53.120;5.786;2023-02-13T02:57:38;103808.56;;;12.98
34125;BMP280;20110;53.120;5.786;2023-02-13T03:00:25;103791.63;;;12.77
34125;BMP280;20110;53.120;5.786;2023-02-13T03:03:17;103764.72;;;12.57
34125;BMP280;20110;53.120;5.786;2023-02-13T03:06:18;103810.28;;;13.10
34125;BMP280;20110;53.120;5.786;2023-02-13T03:08:58;103762.25;;;12.86
34125;BMP280;20110;53.120;5.786;2023-02-13T03:11:48;103786.78;;;12.99
34125;BMP280;20110;53.120;5.786;2023-02-13T03:14:34;103786.03;;;12.99
34125;BMP280;20110;53.120;5.786;2023-02-13T03:17:01;103807.94;;;13.03
34125;BMP280;20110;53.120;5.786;2023-02-13T03:20:30;103811.56;;;12.91
34125;BMP280;20110;53.120;5.786;2023-02-13T03:29:19;103796.53;;;13.02
34125;BMP280;20110;53.120;5.786;2023-02-13T03:35:43;103750.63;;;12.98
34125;BMP280;20110;53.120;5.786;2023-02-13T03:41:29;103764.94;;;13.34
34125;BMP280;20110;53.120;5.786;2023-02-13T03:46:43;103767.28;;;13.55
34125;BMP280;20110;53.120;5.786;2023-02-13T03:49:22;103814.16;;;13.95
34125;BMP280;20110;53.120;5.786;2023-02-13T03:55:02;103766.59;;;13.84
34125;BMP280;20110;53.120;5.786;2023-02-13T03:57:51;103794.09;;;14.14
34125;BMP280;20110;53.120;5.786;2023-02-13T04:00:45;103814.06;;;14.19
34125;BMP280;20110;53.120;5.786;2023-02-13T04:05:53;103807.72;;;14.31
34125;BMP280;20110;53.120;5.786;2023-02-13T04:08:20;103751.69;;;13.93
34125;BMP280;20110;53.120;5.786;2023-02-13T04:11:08;103781.28;;;14.04
34125;BMP280;20110;53.120;5.786;2023-02-13T04:13:44;103770.19;;;13.96
34125;BMP280;20110;53.120;5.786;2023-02-13T04:16:20;103826.78;;;14.24
34125;BMP280;20110;53.120;5.786;2023-02-13T04:18:48;103783.09;;;13.98
34125;BMP280;20110;53.120;5.786;2023-02-13T04:21:16;103807.06;;;14.07
34125;BMP280;20110;53.120;5.786;2023-02-13T04:23:42;103779.22;;;13.99
34125;BMP280;20110;53.120;5.786;2023-02-13T04:26:16;103766.13;;;13.86
34125;BMP280;20110;53.120;5.786;2023-02-13T04:28:42;103781.56;;;14.06
34125;BMP280;20110;53.120;5.786;2023-02-13T04:31:08;103783.41;;;14.14
34125;BMP280;20110;53.120;5.786;2023-02-13T04:33:34;103763.84;;;13.94
34125;BMP280;20110;53.120;5.786;2023-02-13T04:36:00;103647.22;;;13.08
34125;BMP280;20110;53.120;5.786;2023-02-13T04:38:26;103804.13;;;14.19
34125;BMP280;20110;53.120;5.786;2023-02-13T04:40:51;103770.41;;;13.93
34125;BMP280;20110;53.120;5.786;2023-02-13T04:43:17;103754.44;;;13.83
34125;BMP280;20110;53.120;5.786;2023-02-13T04:45:50;103749.44;;;13.76
34125;BMP280;20110;53.120;5.786;2023-02-13T04:48:16;103768.88;;;13.91
34125;BMP280;20110;53.120;5.786;2023-02-13T04:50:42;103747.63;;;13.82
34125;BMP280;20110;53.120;5.786;2023-02-13T04:53:08;103693.50;;;13.43
34125;BMP280;20110;53.120;5.786;2023-02-13T04:55:34;103749.56;;;13.82
34125;BMP280;20110;53.120;5.786;2023-02-13T04:58:00;103759.25;;;13.94
34125;BMP280;20110;53.120;5.786;2023-02-13T05:00:27;103748.50;;;13.79
34125;BMP280;20110;53.120;5.786;2023-02-13T05:02:59;103774.09;;;13.95
34125;BMP280;20110;53.120;5.786;2023-02-13T05:05:25;103756.53;;;13.79
34125;BMP280;20110;53.120;5.786;2023-02-13T05:07:50;103765.03;;;13.78
34125;BMP280;20110;53.120;5.786;2023-02-13T05:10:16;103726.09;;;13.47
34125;BMP280;20110;53.120;5.786;2023-02-13T05:12:42;103753.13;;;13.64
34125;BMP280;20110;53.120;5.786;2023-02-13T05:15:08;103750.66;;;13.61
34125;BMP280;20110;53.120;5.786;2023-02-13T05:17:34;103735.34;;;13.61
34125;BMP280;20110;53.120;5.786;2023-02-13T05:20:00;103774.13;;;14.01
34125;BMP280;20110;53.120;5.786;2023-02-13T05:22:26;103685.69;;;13.40
34125;BMP280;20110;53.120;5.786;2023-02-13T05:25:10;103759.72;;;13.93
34125;BMP280;20110;53.120;5.786;2023-02-13T05:27:36;103780.97;;;14.02
34125;BMP280;20110;53.120;5.786;2023-02-13T05:30:02;103756.56;;;13.94
34125;BMP280;20110;53.120;5.786;2023-02-13T05:32:28;103679.13;;;13.41
34125;BMP280;20110;53.120;5.786;2023-02-13T05:34:53;103790.97;;;14.16
34125;BMP280;20110;53.120;5.786;2023-02-13T05:37:19;103799.13;;;14.12
34125;BMP280;20110;53.120;5.786;2023-02-13T05:39:45;103774.44;;;13.88
34125;BMP280;20110;53.120;5.786;2023-02-13T05:42:11;103743.78;;;13.60
34125;BMP280;20110;53.120;5.786;2023-02-13T05:44:36;103788.13;;;13.66
34125;BMP280;20110;53.120;5.786;2023-02-13T05:47:02;103785.38;;;13.61
34125;BMP280;20110;53.120;5.786;2023-02-13T05:49:28;103786.94;;;13.67
34125;BMP280;20110;53.120;5.786;2023-02-13T05:51:54;103720.06;;;13.23
34125;BMP280;20110;53.120;5.786;2023-02-13T05:54:20;103726.06;;;13.33
34125;BMP280;20110;53.120;5.786;2023-02-13T05:56:46;103719.50;;;13.19
34125;BMP280;20110;53.120;5.786;2023-02-13T05:59:12;103807.69;;;13.72
34125;BMP280;20110;53.120;5.786;2023-02-13T06:01:37;103795.13;;;13.64
34125;BMP280;20110;53.120;5.786;2023-02-13T06:04:03;103824.38;;;13.82
34125;BMP280;20110;53.120;5.786;2023-02-13T06:06:29;103750.22;;;13.14
34125;BMP280;20110;53.120;5.786;2023-02-13T06:08:55;103708.16;;;12.86
34125;BMP280;20110;53.120;5.786;2023-02-13T06:11:22;103739.44;;;13.09
34125;BMP280;20110;53.120;5.786;2023-02-13T06:13:48;103830.78;;;13.75
34125;BMP280;20110;53.120;5.786;2023-02-13T06:16:14;103753.03;;;13.35
34125;BMP280;20110;53.120;5.786;2023-02-13T06:18:40;103800.94;;;13.62
34125;BMP280;20110;53.120;5.786;2023-02-13T06:21:07;103830.06;;;13.75
34125;BMP280;20110;53.120;5.786;2023-02-13T06:23:34;103781.44;;;13.47
34125;BMP280;20110;53.120;5.786;2023-02-13T06:26:07;103795.00;;;13.58
34125;BMP280;20110;53.120;5.786;2023-02-13T06:28:34;103826.41;;;13.87
34125;BMP280;20110;53.120;5.786;2023-02-13T06:31:00;103797.41;;;13.71
34125;BMP280;20110;53.120;5.786;2023-02-13T06:33:26;103823.25;;;13.88
34125;BMP280;20110;53.120;5.786;2023-02-13T06:35:52;103803.91;;;13.79
34125;BMP280;20110;53.120;5.786;2023-02-13T06:38:18;103774.38;;;13.59
34125;BMP280;20110;53.120;5.786;2023-02-13T06:40:48;103812.75;;;13.85
34125;BMP280;20110;53.120;5.786;2023-02-13T06:43:14;103798.56;;;13.79
34125;BMP280;20110;53.120;5.786;2023-02-13T06:45:41;103753.00;;;13.44
34125;BMP280;20110;53.120;5.786;2023-02-13T06:48:08;103791.66;;;13.72
34125;BMP280;20110;53.120;5.786;2023-02-13T06:50:34;103723.56;;;13.29
34125;BMP280;20110;53.120;5.786;2023-02-13T06:53:00;103797.09;;;13.78
34125;BMP280;20110;53.120;5.786;2023-02-13T06:55:27;103739.63;;;13.44
34125;BMP280;20110;53.120;5.786;2023-02-13T06:57:53;103825.50;;;14.05
34125;BMP280;20110;53.120;5.786;2023-02-13T07:00:19;103740.63;;;13.46
34125;BMP280;20110;53.120;5.786;2023-02-13T07:02:46;103808.84;;;13.95
34125;BMP280;20110;53.120;5.786;2023-02-13T07:05:13;103774.88;;;13.72
34125;BMP280;20110;53.120;5.786;2023-02-13T07:07:40;103760.38;;;13.64
34125;BMP280;20110;53.120;5.786;2023-02-13T07:10:12;103802.34;;;13.87
34125;BMP280;20110;53.120;5.786;2023-02-13T07:12:38;103846.34;;;14.15
34125;BMP280;20110;53.120;5.786;2023-02-13T07:15:05;103812.09;;;13.90
34125;BMP280;20110;53.120;5.786;2023-02-13T07:17:31;103835.72;;;14.06
34125;BMP280;20110;53.120;5.786;2023-02-13T07:19:58;103782.78;;;13.66
34125;BMP280;20110;53.120;5.786;2023-02-13T07:22:24;103824.56;;;13.93
34125;BMP280;20110;53.120;5.786;2023-02-13T07:24:50;103824.13;;;13.95
34125;BMP280;20110;53.120;5.786;2023-02-13T07:27:15;103772.28;;;13.63
34125;BMP280;20110;53.120;5.786;2023-02-13T07:29:41;103855.84;;;14.16
34125;BMP280;20110;53.120;5.786;2023-02-13T07:32:07;103841.25;;;14.03
34125;BMP280;20110;53.120;5.786;2023-02-13T07:34:33;103831.28;;;14.03
34125;BMP280;20110;53.120;5.786;2023-02-13T07:36:59;103863.97;;;14.22
34125;BMP280;20110;53.120;5.786;2023-02-13T07:39:25;103829.56;;;14.00
34125;BMP280;20110;53.120;5.786;2023-02-13T07:41:51;103837.59;;;14.15
34125;BMP280;20110;53.120;5.786;2023-02-13T07:44:17;103856.50;;;14.26
34125;BMP280;20110;53.120;5.786;2023-02-13T07:46:43;103805.41;;;13.95
34125;BMP280;20110;53.120;5.786;2023-02-13T07:49:09;103863.97;;;14.37
34125;BMP280;20110;53.120;5.786;2023-02-13T07:51:34;103846.25;;;14.24
34125;BMP280;20110;53.120;5.786;2023-02-13T07:54:01;103867.19;;;14.41
34125;BMP280;20110;53.120;5.786;2023-02-13T07:56:27;103866.00;;;14.42
34125;BMP280;20110;53.120;5.786;2023-02-13T07:58:53;103846.25;;;14.24
34125;BMP280;20110;53.120;5.786;2023-02-13T08:01:19;103871.59;;;14.44
34125;BMP280;20110;53.120;5.786;2023-02-13T08:03:49;103800.16;;;14.00
34125;BMP280;20110;53.120;5.786;2023-02-13T08:06:17;103820.06;;;14.14
34125;BMP280;20110;53.120;5.786;2023-02-13T08:08:43;103872.44;;;14.50
34125;BMP280;20110;53.120;5.786;2023-02-13T08:11:37;103790.47;;;14.03
34125;BMP280;20110;53.120;5.786;2023-02-13T08:14:25;103832.69;;;14.43
34125;BMP280;20110;53.120;5.786;2023-02-13T08:16:53;103707.34;;;13.57
34125;BMP280;20110;53.120;5.786;2023-02-13T08:19:19;103868.44;;;14.75
34125;BMP280;20110;53.120;5.786;2023-02-13T08:21:45;103847.44;;;14.53
34125;BMP280;20110;53.120;5.786;2023-02-13T08:24:12;103832.44;;;14.41
34125;BMP280;20110;53.120;5.786;2023-02-13T08:26:38;103843.09;;;14.55
34125;BMP280;20110;53.120;5.786;2023-02-13T08:29:06;103863.03;;;14.69
34125;BMP280;20110;53.120;5.786;2023-02-13T08:31:32;103867.78;;;14.80
34125;BMP280;20110;53.120;5.786;2023-02-13T08:33:58;103863.09;;;14.75
34125;BMP280;20110;53.120;5.786;2023-02-13T08:36:25;103794.59;;;14.33
34125;BMP280;20110;53.120;5.786;2023-02-13T08:38:51;103805.41;;;14.39
34125;BMP280;20110;53.120;5.786;2023-02-13T08:41:16;103813.34;;;14.48
34125;BMP280;20110;53.120;5.786;2023-02-13T08:43:43;103861.06;;;14.84
34125;BMP280;20110;53.120;5.786;2023-02-13T08:46:10;103861.94;;;14.96
34125;BMP280;20110;53.120;5.786;2023-02-13T08:48:36;103817.72;;;14.65
34125;BMP280;20110;53.120;5.786;2023-02-13T08:51:07;103883.78;;;15.09
34125;BMP280;20110;53.120;5.786;2023-02-13T08:53:35;103760.31;;;14.32
34125;BMP280;20110;53.120;5.786;2023-02-13T08:56:01;103881.72;;;15.19
34125;BMP280;20110;53.120;5.786;2023-02-13T08:58:27;103780.84;;;14.55
34125;BMP280;20110;53.120;5.786;2023-02-13T09:00:53;103875.50;;;15.27
34125;BMP280;20110;53.120;5.786;2023-02-13T09:03:19;103786.63;;;14.68
34125;BMP280;20110;53.120;5.786;2023-02-13T09:05:44;103838.47;;;15.06
34125;BMP280;20110;53.120;5.786;2023-02-13T09:08:12;103880.28;;;15.38
34125;BMP280;20110;53.120;5.786;2023-02-13T09:10:40;103878.59;;;15.40
34125;BMP280;20110;53.120;5.786;2023-02-13T09:13:06;103869.94;;;15.31
34125;BMP280;20110;53.120;5.786;2023-02-13T09:15:32;103879.31;;;15.41
34125;BMP280;20110;53.120;5.786;2023-02-13T09:17:58;103861.16;;;15.30
34125;BMP280;20110;53.120;5.786;2023-02-13T09:20:25;103872.75;;;15.42
34125;BMP280;20110;53.120;5.786;2023-02-13T09:22:50;103862.25;;;15.38
34125;BMP280;20110;53.120;5.786;2023-02-13T09:25:16;103846.78;;;15.28
34125;BMP280;20110;53.120;5.786;2023-02-13T09:27:44;103875.25;;;15.46
34125;BMP280;20110;53.120;5.786;2023-02-13T09:30:11;103868.69;;;15.47
34125;BMP280;20110;53.120;5.786;2023-02-13T09:32:40;103836.44;;;15.15
34125;BMP280;20110;53.120;5.786;2023-02-13T09:35:06;103870.50;;;15.35
34125;BMP280;20110;53.120;5.786;2023-02-13T09:37:32;103873.72;;;15.39
34125;BMP280;20110;53.120;5.786;2023-02-13T09:39:58;103850.88;;;15.23
34125;BMP280;20110;53.120;5.786;2023-02-13T09:42:29;103872.59;;;15.25
34125;BMP280;20110;53.120;5.786;2023-02-13T09:45:03;103863.22;;;15.21
34125;BMP280;20110;53.120;5.786;2023-02-13T09:47:37;103843.63;;;15.09
34125;BMP280;20110;53.120;5.786;2023-02-13T09:52:42;103847.50;;;15.08
34125;BMP280;20110;53.120;5.786;2023-02-13T09:58:03;103849.44;;;15.08
34125;BMP280;20110;53.120;5.786;2023-02-13T10:00:41;103867.25;;;15.11
34125;BMP280;20110;53.120;5.786;2023-02-13T10:06:14;103871.75;;;15.19
34125;BMP280;20110;53.120;5.786;2023-02-13T10:09:21;103831.56;;;14.99
34125;BMP280;20110;53.120;5.786;2023-02-13T10:12:11;103846.31;;;15.29
34125;BMP280;20110;53.120;5.786;2023-02-13T10:18:12;103833.53;;;15.39
34125;BMP280;20110;53.120;5.786;2023-02-13T10:20:46;103856.63;;;15.57
34125;BMP280;20110;53.120;5.786;2023-02-13T10:26:21;103858.09;;;15.58
34125;BMP280;20110;53.120;5.786;2023-02-13T10:29:03;103856.63;;;15.57
34125;BMP280;20110;53.120;5.786;2023-02-13T10:31:51;103817.84;;;15.52
34125;BMP280;20110;53.120;5.786;2023-02-13T10:34:24;103829.41;;;15.64
34125;BMP280;20110;53.120;5.786;2023-02-13T10:36:52;103849.59;;;15.85
34125;BMP280;20110;53.120;5.786;2023-02-13T10:39:25;103862.44;;;16.01
34125;BMP280;20110;53.120;5.786;2023-02-13T10:48:10;103869.75;;;16.32
34125;BMP280;20110;53.120;5.786;2023-02-13T11:04:17;103759.47;;;15.62
34125;BMP280;20110;53.120;5.786;2023-02-13T11:07:03;103831.41;;;16.21
34125;BMP280;20110;53.120;5.786;2023-02-13T11:09:40;103816.72;;;16.16
34125;BMP280;20110;53.120;5.786;2023-02-13T11:12:36;103830.72;;;16.26
34125;BMP280;20110;53.120;5.786;2023-02-13T11:15:07;103805.25;;;16.15
34125;BMP280;20110;53.120;5.786;2023-02-13T11:17:44;103798.81;;;16.33
34125;BMP280;20110;53.120;5.786;2023-02-13T11:20:38;103816.47;;;16.45
34125;BMP280;20110;53.120;5.786;2023-02-13T11:28:31;103800.13;;;16.49
34125;BMP280;20110;53.120;5.786;2023-02-13T11:31:27;103781.78;;;16.42
34125;BMP280;20110;53.120;5.786;2023-02-13T11:33:55;103827.63;;;16.81
34125;BMP280;20110;53.120;5.786;2023-02-13T11:36:31;103818.88;;;16.86
34125;BMP280;20110;53.120;5.786;2023-02-13T11:39:05;103817.72;;;17.04
34125;BMP280;20110;53.120;5.786;2023-02-13T11:41:41;103736.94;;;16.48
34125;BMP280;20110;53.120;5.786;2023-02-13T11:47:00;103813.63;;;17.14
34125;BMP280;20110;53.120;5.786;2023-02-13T11:49:30;103787.25;;;17.18
34125;BMP280;20110;53.120;5.786;2023-02-13T11:52:01;103792.38;;;17.27
34125;BMP280;20110;53.120;5.786;2023-02-13T11:54:41;103806.13;;;17.46
34125;BMP280;20110;53.120;5.786;2023-02-13T11:57:28;103817.88;;;17.54
34125;BMP280;20110;53.120;5.786;2023-02-13T11:59:55;103786.28;;;17.38
34125;BMP280;20110;53.120;5.786;2023-02-13T12:02:28;103797.09;;;17.54
34125;BMP280;20110;53.120;5.786;2023-02-13T12:07:43;103822.03;;;18.05
34125;BMP280;20110;53.120;5.786;2023-02-13T12:10:27;103696.91;;;17.48
34125;BMP280;20110;53.120;5.786;2023-02-13T12:13:04;103697.41;;;17.58
34125;BMP280;20110;53.120;5.786;2023-02-13T12:15:36;103797.75;;;18.33
34125;BMP280;20110;53.120;5.786;2023-02-13T12:18:19;103694.69;;;17.47
34125;BMP280;20110;53.120;5.786;2023-02-13T12:21:27;103798.28;;;18.26
34125;BMP280;20110;53.120;5.786;2023-02-13T12:24:48;103794.63;;;18.18
34125;BMP280;20110;53.120;5.786;2023-02-13T12:37:18;103707.63;;;17.82
34125;BMP280;20110;53.120;5.786;2023-02-13T12:54:58;103767.84;;;18.53
34125;BMP280;20110;53.120;5.786;2023-02-13T13:15:13;103728.84;;;18.71
34125;BMP280;20110;53.120;5.786;2023-02-13T13:23:53;103670.91;;;18.01
34125;BMP280;20110;53.120;5.786;2023-02-13T13:26:42;103669.25;;;17.87
34125;BMP280;20110;53.120;5.786;2023-02-13T13:29:21;103610.44;;;17.50
34125;BMP280;20110;53.120;5.786;2023-02-13T13:32:05;103677.50;;;18.00
34125;BMP280;20110;53.120;5.786;2023-02-13T13:34:34;103688.97;;;18.11
34125;BMP280;20110;53.120;5.786;2023-02-13T13:37:39;103586.94;;;17.56
34125;BMP280;20110;53.120;5.786;2023-02-13T13:49:37;103601.59;;;17.72
34125;BMP280;20110;53.120;5.786;2023-02-13T13:52:28;103625.44;;;18.03
34125;BMP280;20110;53.120;5.786;2023-02-13T13:54:58;103575.41;;;17.78
34125;BMP280;20110;53.120;5.786;2023-02-13T14:02:49;103667.97;;;18.04
34125;BMP280;20110;53.120;5.786;2023-02-13T14:05:32;103708.03;;;18.19
34125;BMP280;20110;53.120;5.786;2023-02-13T14:11:41;103688.97;;;18.11
34125;BMP280;20110;53.120;5.786;2023-02-13T14:16:55;103593.25;;;17.69
34125;BMP280;20110;53.120;5.786;2023-02-13T14:19:38;103664.25;;;18.19
34125;BMP280;20110;53.120;5.786;2023-02-13T14:22:34;103674.00;;;18.22
34125;BMP280;20110;53.120;5.786;2023-02-13T14:25:06;103663.81;;;18.09
34125;BMP280;20110;53.120;5.786;2023-02-13T14:27:59;103615.53;;;17.59
34125;BMP280;20110;53.120;5.786;2023-02-13T14:30:37;103630.66;;;17.73
34125;BMP280;20110;53.120;5.786;2023-02-13T14:33:29;103612.38;;;17.55
34125;BMP280;20110;53.120;5.786;2023-02-13T14:36:05;103645.81;;;17.76
34125;BMP280;20110;53.120;5.786;2023-02-13T14:38:31;103646.09;;;17.73
34125;BMP280;20110;53.120;5.786;2023-02-13T14:40:57;103680.50;;;17.80
34125;BMP280;20110;53.120;5.786;2023-02-13T14:43:46;103647.56;;;17.46
34125;BMP280;20110;53.120;5.786;2023-02-13T14:46:36;103600.69;;;17.02
34125;BMP280;20110;53.120;5.786;2023-02-13T14:51:55;103583.84;;;16.79
34125;BMP280;20110;53.120;5.786;2023-02-13T14:57:05;103642.19;;;17.35
34125;BMP280;20110;53.120;5.786;2023-02-13T14:59:35;103651.00;;;17.46
34125;BMP280;20110;53.120;5.786;2023-02-13T15:02:28;103644.16;;;17.40
34125;BMP280;20110;53.120;5.786;2023-02-13T15:05:05;103655.63;;;17.35
34125;BMP280;20110;53.120;5.786;2023-02-13T15:07:37;103628.53;;;17.21
34125;BMP280;20110;53.120;5.786;2023-02-13T15:13:00;103669.53;;;17.33
34125;BMP280;20110;53.120;5.786;2023-02-13T15:15:35;103638.03;;;17.11
34125;BMP280;20110;53.120;5.786;2023-02-13T15:18:10;103622.66;;;17.06
34125;BMP280;20110;53.120;5.786;2023-02-13T15:20:42;103554.78;;;16.67
34125;BMP280;20110;53.120;5.786;2023-02-13T15:23:21;103678.59;;;17.36
34125;BMP280;20110;53.120;5.786;2023-02-13T15:25:55;103635.34;;;16.94
34125;BMP280;20110;53.120;5.786;2023-02-13T15:28:23;103625.31;;;16.84
34125;BMP280;20110;53.120;5.786;2023-02-13T15:31:05;103569.84;;;16.31
34125;BMP280;20110;53.120;5.786;2023-02-13T15:33:45;103595.25;;;16.52
34125;BMP280;20110;53.120;5.786;2023-02-13T15:36:34;103673.72;;;17.17
34125;BMP280;20110;53.120;5.786;2023-02-13T15:39:04;103654.44;;;17.19
34125;BMP280;20110;53.120;5.786;2023-02-13T15:41:52;103609.72;;;16.88
34125;BMP280;20110;53.120;5.786;2023-02-13T15:44:37;103636.56;;;16.93
34125;BMP280;20110;53.120;5.786;2023-02-13T15:47:28;103663.44;;;16.99
34125;BMP280;20110;53.120;5.786;2023-02-13T15:49:55;103656.56;;;16.81
34125;BMP280;20110;53.120;5.786;2023-02-13T15:52:33;103663.13;;;16.75
34125;BMP280;20110;53.120;5.786;2023-02-13T15:55:00;103672.63;;;16.70
34125;BMP280;20110;53.120;5.786;2023-02-13T15:57:27;103655.78;;;16.59
34125;BMP280;20110;53.120;5.786;2023-02-13T15:59:59;103646.19;;;16.41
34125;BMP280;20110;53.120;5.786;2023-02-13T16:02:45;103651.56;;;16.41
34125;BMP280;20110;53.120;5.786;2023-02-13T16:05:13;103636.31;;;16.15
34125;BMP280;20110;53.120;5.786;2023-02-13T16:08:33;103624.81;;;15.98
34125;BMP280;20110;53.120;5.786;2023-02-13T16:14:02;103557.66;;;15.39
34125;BMP280;20110;53.120;5.786;2023-02-13T16:16:50;103618.13;;;15.83
34125;BMP280;20110;53.120;5.786;2023-02-13T16:19:24;103583.06;;;15.49
34125;BMP280;20110;53.120;5.786;2023-02-13T16:21:52;103658.13;;;15.92
34125;BMP280;20110;53.120;5.786;2023-02-13T16:24:20;103553.75;;;15.03
34125;BMP280;20110;53.120;5.786;2023-02-13T16:26:46;103651.97;;;15.49
34125;BMP280;20110;53.120;5.786;2023-02-13T16:29:23;103655.47;;;15.29
34125;BMP280;20110;53.120;5.786;2023-02-13T16:31:52;103519.69;;;14.11
34125;BMP280;20110;53.120;5.786;2023-02-13T16:34:27;103659.88;;;14.86
34125;BMP280;20110;53.120;5.786;2023-02-13T16:36:55;103654.59;;;14.71
34125;BMP280;20110;53.120;5.786;2023-02-13T16:39:31;103474.25;;;13.21
34125;BMP280;20110;53.120;5.786;2023-02-13T16:41:59;103639.06;;;14.35
34125;BMP280;20110;53.120;5.786;2023-02-13T16:44:32;103636.06;;;14.12
34125;BMP280;20110;53.120;5.786;2023-02-13T16:47:03;103642.72;;;14.02
34125;BMP280;20110;53.120;5.786;2023-02-13T16:49:35;103530.09;;;13.10
34125;BMP280;20110;53.120;5.786;2023-02-13T16:52:22;103541.94;;;12.94
34125;BMP280;20110;53.120;5.786;2023-02-13T16:55:00;103641.75;;;13.41
34125;BMP280;20110;53.120;5.786;2023-02-13T16:57:32;103624.78;;;13.14
34125;BMP280;20110;53.120;5.786;2023-02-13T17:00:20;103641.59;;;13.06
34125;BMP280;20110;53.120;5.786;2023-02-13T17:02:48;103516.44;;;12.07
34125;BMP280;20110;53.120;5.786;2023-02-13T17:05:27;103628.28;;;12.58
34125;BMP280;20110;53.120;5.786;2023-02-13T17:07:55;103597.19;;;12.31
34125;BMP280;20110;53.120;5.786;2023-02-13T17:10:32;103634.88;;;12.39
34125;BMP280;20110;53.120;5.786;2023-02-13T17:15:46;103557.28;;;11.80
34125;BMP280;20110;53.120;5.786;2023-02-13T17:18:13;103599.03;;;12.07
34125;BMP280;20110;53.120;5.786;2023-02-13T17:20:42;103570.75;;;11.77